createdAt,value
2023-02-24T00:02:15.252Z,21.77
2023-02-24T00:04:44.187Z,25.10
2023-02-24T00:07:14.012Z,24.93
2023-02-24T00:12:15.401Z,28.38
2023-02-24T00:14:46.648Z,23.58
2023-02-24T00:17:16.054Z,26.40
2023-02-24T00:19:46.466Z,25.33
2023-02-24T00:22:15.137Z,25.77
2023-02-24T00:24:43.678Z,26.85
2023-02-24T00:27:12.529Z,25.63
2023-02-24T00:29:42.347Z,25.20
2023-02-24T00:34:44.364Z,26.50
2023-02-24T00:37:15.656Z,25.83
2023-02-24T00:39:46.523Z,27.52
2023-02-24T00:42:15.124Z,26.77
2023-02-24T00:44:46.843Z,27.70
2023-02-24T00:47:18.538Z,26.52
2023-02-24T00:49:48.349Z,25.58
2023-02-24T00:54:47.303Z,26.17
2023-02-24T00:59:47.730Z,25.88
2023-02-24T01:02:17.874Z,26.98
2023-02-24T01:04:47.183Z,25.85
2023-02-24T01:07:16.067Z,27.33
2023-02-24T01:09:45.164Z,26.43
2023-02-24T01:12:32.278Z,30.77
2023-02-24T01:15:03.231Z,24.73
2023-02-24T01:17:33.366Z,27.35
2023-02-24T01:20:16.059Z,26.23
2023-02-24T01:22:45.765Z,28.75
2023-02-24T01:25:16.867Z,27.83
2023-02-24T01:27:45.650Z,31.10
2023-02-24T01:30:16.444Z,26.80
2023-02-24T01:32:48.211Z,26.05
2023-02-24T01:35:18.140Z,27.05
2023-02-24T01:37:46.918Z,30.88
2023-02-24T01:40:20.873Z,28.88
2023-02-24T01:42:49.700Z,31.80
2023-02-24T01:45:25.246Z,28.23
2023-02-24T01:48:00.240Z,29.83
2023-02-24T01:50:30.933Z,30.55
2023-02-24T01:53:06.103Z,30.70
2023-02-24T01:55:37.500Z,29.38
2023-02-24T01:58:12.636Z,30.00
2023-02-24T02:00:45.542Z,29.92
2023-02-24T02:03:24.286Z,34.70
2023-02-24T02:05:56.201Z,28.55
2023-02-24T02:08:26.020Z,28.45
2023-02-24T02:10:59.462Z,30.48
2023-02-24T02:13:30.432Z,30.98
2023-02-24T02:16:16.715Z,32.42
2023-02-24T02:18:56.598Z,29.63
2023-02-24T02:24:31.594Z,29.80
2023-02-24T02:27:19.994Z,31.40
2023-02-24T02:30:31.421Z,30.23
2023-02-24T02:33:21.761Z,29.67
2023-02-24T02:36:01.555Z,27.58
2023-02-24T02:38:37.293Z,29.40
2023-02-24T02:41:12.818Z,30.15
2023-02-24T02:43:49.103Z,28.92
2023-02-24T02:46:33.961Z,31.65
2023-02-24T02:49:12.548Z,28.30
2023-02-24T02:51:51.880Z,32.40
2023-02-24T02:54:28.426Z,35.08
2023-02-24T02:57:03.556Z,28.45
2023-02-24T02:59:35.900Z,30.83
2023-02-24T03:02:15.031Z,31.60
2023-02-24T03:04:51.495Z,35.40
2023-02-24T03:07:31.463Z,33.15
2023-02-24T03:10:09.766Z,35.88
2023-02-24T03:12:41.887Z,34.67
2023-02-24T03:15:14.297Z,33.40
2023-02-24T03:17:46.532Z,29.35
2023-02-24T03:20:22.658Z,29.77
2023-02-24T03:23:00.474Z,30.48
2023-02-24T03:25:38.790Z,36.28
2023-02-24T03:28:17.560Z,33.88
2023-02-24T03:30:51.677Z,38.47
2023-02-24T03:33:24.867Z,38.33
2023-02-24T03:35:53.531Z,34.38
2023-02-24T03:38:24.594Z,27.85
2023-02-24T03:40:54.235Z,27.52
2023-02-24T03:43:31.904Z,33.03
2023-02-24T03:46:02.446Z,27.35
2023-02-24T03:48:33.462Z,28.08
2023-02-24T03:51:04.199Z,28.90
2023-02-24T03:54:01.717Z,32.35
2023-02-24T03:56:46.005Z,39.70
2023-02-24T03:59:34.061Z,36.30
2023-02-24T04:02:10.349Z,39.80
2023-02-24T04:04:51.605Z,39.80
2023-02-24T04:07:52.210Z,40.58
2023-02-24T04:10:26.526Z,42.10
2023-02-24T04:13:02.220Z,46.63
2023-02-24T04:15:37.811Z,45.58
2023-02-24T04:18:15.290Z,47.67
2023-02-24T04:20:49.529Z,32.75
2023-02-24T04:23:24.692Z,35.38
2023-02-24T04:25:57.204Z,32.28
2023-02-24T04:28:29.928Z,38.03
2023-02-24T04:31:06.081Z,40.17
2023-02-24T04:33:36.478Z,33.88
2023-02-24T04:36:06.275Z,35.30
2023-02-24T04:38:38.726Z,35.10
2023-02-24T04:41:09.071Z,31.67
2023-02-24T04:43:38.518Z,59.20
2023-02-24T04:46:08.336Z,41.28
2023-02-24T04:48:36.997Z,34.05
2023-02-24T04:51:06.677Z,35.50
2023-02-24T04:56:09.052Z,38.75
2023-02-24T04:58:42.772Z,38.58
2023-02-24T05:01:12.680Z,36.00
2023-02-24T05:03:43.029Z,37.22
2023-02-24T05:06:16.824Z,38.65
2023-02-24T05:08:46.049Z,35.20
2023-02-24T05:11:17.147Z,39.10
2023-02-24T05:13:47.334Z,39.58
2023-02-24T05:16:17.666Z,43.13
2023-02-24T05:18:46.359Z,39.05
2023-02-24T05:21:34.745Z,36.95
2023-02-24T05:24:07.026Z,37.55
2023-02-24T05:26:37.266Z,38.00
2023-02-24T05:29:08.550Z,34.80
2023-02-24T05:31:37.733Z,37.75
2023-02-24T05:34:08.674Z,39.15
2023-02-24T05:36:40.368Z,43.45
2023-02-24T05:39:12.582Z,43.20
2023-02-24T05:41:43.293Z,36.63
2023-02-24T05:44:15.945Z,43.63
2023-02-24T05:46:48.672Z,40.22
2023-02-24T05:49:22.418Z,39.70
2023-02-24T05:51:55.753Z,40.65
2023-02-24T05:54:28.982Z,41.95
2023-02-24T05:57:00.344Z,40.10
2023-02-24T05:59:33.127Z,42.63
2023-02-24T06:02:07.457Z,44.47
2023-02-24T06:04:51.478Z,42.40
2023-02-24T06:07:24.953Z,41.03
2023-02-24T06:09:57.785Z,44.63
2023-02-24T06:12:28.693Z,41.08
2023-02-24T06:14:59.437Z,41.08
2023-02-24T06:17:29.350Z,42.33
2023-02-24T06:20:03.428Z,38.35
2023-02-24T06:22:42.439Z,36.17
2023-02-24T06:25:12.584Z,39.42
2023-02-24T06:27:43.283Z,41.53
2023-02-24T06:30:26.888Z,35.88
2023-02-24T06:32:56.907Z,43.67
2023-02-24T06:35:25.760Z,37.65
2023-02-24T06:37:55.978Z,44.10
2023-02-24T06:40:26.393Z,44.20
2023-02-24T06:42:55.740Z,46.80
2023-02-24T06:45:26.482Z,43.30
2023-02-24T06:47:55.109Z,55.33
2023-02-24T06:50:24.452Z,50.13
2023-02-24T06:53:01.035Z,44.88
2023-02-24T06:55:35.719Z,48.97
2023-02-24T06:58:06.535Z,44.53
2023-02-24T07:00:40.219Z,49.15
2023-02-24T07:03:17.919Z,48.00
2023-02-24T07:05:50.631Z,43.60
2023-02-24T07:08:24.018Z,44.60
2023-02-24T07:10:56.958Z,43.33
2023-02-24T07:13:30.403Z,49.47
2023-02-24T07:16:07.402Z,43.42
2023-02-24T07:18:37.219Z,42.97
2023-02-24T07:21:11.733Z,42.88
2023-02-24T07:23:41.850Z,50.22
2023-02-24T07:26:12.306Z,43.22
2023-02-24T07:28:42.098Z,42.60
2023-02-24T07:33:45.426Z,44.22
2023-02-24T07:36:16.071Z,45.45
2023-02-24T07:38:52.994Z,42.50
2023-02-24T07:41:23.771Z,37.00
2023-02-24T07:43:54.112Z,36.40
2023-02-24T07:46:26.128Z,39.72
2023-02-24T07:48:55.745Z,37.17
2023-02-24T07:51:26.090Z,37.28
2023-02-24T07:54:00.373Z,42.03
2023-02-24T07:56:33.305Z,39.70
2023-02-24T07:59:03.624Z,37.90
2023-02-24T08:01:40.093Z,43.17
2023-02-24T08:04:12.775Z,39.75
2023-02-24T08:06:48.894Z,42.05
2023-02-24T08:09:20.529Z,40.80
2023-02-24T08:11:52.495Z,37.45
2023-02-24T08:14:24.220Z,39.90
2023-02-24T08:16:59.643Z,42.75
2023-02-24T08:19:34.742Z,43.38
2023-02-24T08:22:19.592Z,48.75
2023-02-24T08:24:50.290Z,41.15
2023-02-24T08:27:22.062Z,51.22
2023-02-24T08:30:21.641Z,45.03
2023-02-24T08:35:36.055Z,45.55
2023-02-24T08:38:07.846Z,41.50
2023-02-24T08:40:39.658Z,43.50
2023-02-24T08:43:19.639Z,43.08
2023-02-24T08:45:51.619Z,43.33
2023-02-24T08:48:32.379Z,37.47
2023-02-24T08:51:06.238Z,47.72
2023-02-24T08:53:40.615Z,45.53
2023-02-24T08:56:12.605Z,39.70
2023-02-24T08:58:47.515Z,39.17
2023-02-24T09:01:24.913Z,38.40
2023-02-24T09:04:02.756Z,36.63
2023-02-24T09:06:39.476Z,44.17
2023-02-24T09:09:21.363Z,38.03
2023-02-24T09:11:56.562Z,40.22
2023-02-24T09:14:28.829Z,44.80
2023-02-24T09:17:06.406Z,40.83
2023-02-24T09:20:04.843Z,42.22
2023-02-24T09:22:41.045Z,46.65
2023-02-24T09:25:24.174Z,41.63
2023-02-24T09:27:56.106Z,42.92
2023-02-24T09:30:37.142Z,40.90
2023-02-24T09:33:24.214Z,44.40
2023-02-24T09:36:17.164Z,43.63
2023-02-24T09:39:05.080Z,46.38
2023-02-24T09:41:54.152Z,38.05
2023-02-24T09:44:28.311Z,38.17
2023-02-24T09:47:09.030Z,33.53
2023-02-24T09:49:48.923Z,37.20
2023-02-24T09:55:10.822Z,40.85
2023-02-24T09:58:11.134Z,34.80
2023-02-24T10:00:44.462Z,42.22
2023-02-24T10:03:41.696Z,43.03
2023-02-24T10:06:21.024Z,41.83
2023-02-24T10:08:57.276Z,32.25
2023-02-24T10:11:35.206Z,31.45
2023-02-24T10:14:07.191Z,32.60
2023-02-24T10:16:43.374Z,33.03
2023-02-24T10:19:25.868Z,33.95
2023-02-24T10:22:03.138Z,32.17
2023-02-24T10:24:39.002Z,35.75
2023-02-24T10:27:18.269Z,34.25
2023-02-24T10:30:05.968Z,33.90
2023-02-24T10:32:42.447Z,29.67
2023-02-24T10:35:20.573Z,47.20
2023-02-24T10:37:54.187Z,40.42
2023-02-24T10:40:34.941Z,50.55
2023-02-24T10:43:11.180Z,41.45
2023-02-24T10:45:45.571Z,35.33
2023-02-24T10:48:42.756Z,32.70
2023-02-24T10:51:20.340Z,32.58
2023-02-24T10:54:17.148Z,36.45
2023-02-24T10:57:08.908Z,36.72
2023-02-24T11:00:18.878Z,32.63
2023-02-24T11:03:10.470Z,28.05
2023-02-24T11:06:05.446Z,24.77
2023-02-24T11:08:54.563Z,25.50
2023-02-24T11:11:51.744Z,24.95
2023-02-24T11:14:39.854Z,26.73
2023-02-24T11:17:21.428Z,28.10
2023-02-24T11:19:59.420Z,26.33
2023-02-24T11:22:38.198Z,33.13
2023-02-24T11:25:20.632Z,27.00
2023-02-24T11:27:51.426Z,25.65
2023-02-24T11:30:37.400Z,25.65
2023-02-24T11:33:22.528Z,28.00
2023-02-24T11:36:05.300Z,28.23
2023-02-24T11:38:44.364Z,24.20
2023-02-24T11:41:23.376Z,25.65
2023-02-24T11:44:02.736Z,25.60
2023-02-24T11:46:43.192Z,18.95
2023-02-24T11:49:28.597Z,22.38
2023-02-24T11:52:00.962Z,23.13
2023-02-24T11:54:35.065Z,28.77
2023-02-24T11:57:08.395Z,34.88
2023-02-24T11:59:41.163Z,23.77
2023-02-24T12:02:21.173Z,22.83
2023-02-24T12:05:02.026Z,21.65
2023-02-24T12:10:17.992Z,22.17
2023-02-24T12:12:53.965Z,23.40
2023-02-24T12:15:30.644Z,25.90
2023-02-24T12:18:11.782Z,21.60
2023-02-24T12:20:44.327Z,21.85
2023-02-24T12:23:18.634Z,23.50
2023-02-24T12:26:05.023Z,21.05
2023-02-24T12:28:45.481Z,19.23
2023-02-24T12:31:30.422Z,20.65
2023-02-24T12:34:09.890Z,22.50
2023-02-24T12:37:03.706Z,25.55
2023-02-24T12:39:43.330Z,22.38
2023-02-24T12:42:23.170Z,22.90
2023-02-24T12:44:59.270Z,22.42
2023-02-24T12:47:38.730Z,21.95
2023-02-24T12:50:37.292Z,22.63
2023-02-24T12:53:15.732Z,24.23
2023-02-24T12:55:58.035Z,19.35
2023-02-24T12:58:30.424Z,25.63
2023-02-24T13:01:08.662Z,19.23
2023-02-24T13:03:48.989Z,21.15
2023-02-24T13:06:27.505Z,23.10
2023-02-24T13:09:04.689Z,27.33
2023-02-24T13:11:44.899Z,21.85
2023-02-24T13:14:22.638Z,23.25
2023-02-24T13:17:07.090Z,20.90
2023-02-24T13:19:39.188Z,22.15
2023-02-24T13:22:21.440Z,22.33
2023-02-24T13:25:23.681Z,23.65
2023-02-24T13:28:01.754Z,23.75
2023-02-24T13:30:43.241Z,22.08
2023-02-24T13:33:30.382Z,26.83
2023-02-24T13:36:26.602Z,28.02
2023-02-24T13:39:09.100Z,24.42
2023-02-24T13:41:42.366Z,26.10
2023-02-24T13:44:26.973Z,34.22
2023-02-24T13:47:18.336Z,26.42
2023-02-24T13:50:00.306Z,29.00
2023-02-24T13:52:45.493Z,33.15
2023-02-24T13:55:29.539Z,34.50
2023-02-24T13:58:20.138Z,32.22
2023-02-24T14:01:10.914Z,29.05
2023-02-24T14:03:41.933Z,29.23
2023-02-24T14:06:19.405Z,31.50
2023-02-24T14:08:54.309Z,37.03
2023-02-24T14:11:29.164Z,33.50
2023-02-24T14:14:02.697Z,28.63
2023-02-24T14:16:40.365Z,29.25
2023-02-24T14:19:19.082Z,31.88
2023-02-24T14:21:53.277Z,34.20
2023-02-24T14:24:22.492Z,32.08
2023-02-24T14:26:58.792Z,31.30
2023-02-24T14:29:32.261Z,30.85
2023-02-24T14:32:05.123Z,30.85
2023-02-24T14:34:34.866Z,27.17
2023-02-24T14:39:41.013Z,32.10
2023-02-24T14:42:19.423Z,30.63
2023-02-24T14:44:53.191Z,33.20
2023-02-24T14:47:24.163Z,36.20
2023-02-24T14:50:02.192Z,31.85
2023-02-24T14:52:44.076Z,33.63
2023-02-24T14:55:18.984Z,32.42
2023-02-24T14:57:57.596Z,30.27
2023-02-24T15:00:32.842Z,28.95
2023-02-24T15:03:07.847Z,33.08
2023-02-24T15:05:44.684Z,32.97
2023-02-24T15:08:36.464Z,33.35
2023-02-24T15:11:16.373Z,37.28
2023-02-24T15:13:50.077Z,35.65
2023-02-24T15:16:23.176Z,36.53
2023-02-24T15:18:56.154Z,30.92
2023-02-24T15:21:31.243Z,32.55
2023-02-24T15:24:01.766Z,33.13
2023-02-24T15:26:32.341Z,30.83
2023-02-24T15:29:15.405Z,29.00
2023-02-24T15:31:49.200Z,33.25
2023-02-24T15:34:23.524Z,33.83
2023-02-24T15:36:55.565Z,35.67
2023-02-24T15:39:31.327Z,32.55
2023-02-24T15:42:09.431Z,32.47
2023-02-24T15:44:39.517Z,39.55
2023-02-24T15:47:24.223Z,33.92
2023-02-24T15:49:55.712Z,35.78
2023-02-24T15:52:28.666Z,31.70
2023-02-24T15:54:59.519Z,35.97
2023-02-24T15:57:30.231Z,36.92
2023-02-24T16:00:09.099Z,37.65
2023-02-24T16:02:46.159Z,45.35
2023-02-24T16:05:17.480Z,51.38
2023-02-24T16:10:42.721Z,48.97
2023-02-24T16:13:24.223Z,43.65
2023-02-24T16:15:57.443Z,43.63
2023-02-24T16:18:27.280Z,42.97
2023-02-24T16:20:57.114Z,41.50
2023-02-24T16:23:27.308Z,40.58
2023-02-24T16:25:58.160Z,41.38
2023-02-24T16:28:27.823Z,37.72
2023-02-24T16:31:00.538Z,43.85
2023-02-24T16:33:33.247Z,36.00
2023-02-24T16:36:06.639Z,35.63
2023-02-24T16:38:35.337Z,42.75
2023-02-24T16:41:05.185Z,40.35
2023-02-24T16:43:35.325Z,38.10
2023-02-24T16:46:08.465Z,39.00
2023-02-24T16:48:42.107Z,34.40
2023-02-24T16:51:14.531Z,35.83
2023-02-24T16:53:44.215Z,36.90
2023-02-24T16:58:44.334Z,37.42
2023-02-24T17:01:21.108Z,44.53
2023-02-24T17:03:54.345Z,218.65
2023-02-24T17:06:24.809Z,109.55
2023-02-24T17:09:03.282Z,89.00
2023-02-24T17:11:32.295Z,79.00
2023-02-24T17:14:01.168Z,49.53
2023-02-24T17:16:31.546Z,43.70
2023-02-24T17:19:00.198Z,39.95
2023-02-24T17:21:28.914Z,43.80
2023-02-24T17:24:00.036Z,53.92
2023-02-24T17:26:28.688Z,45.53
2023-02-24T17:28:59.195Z,55.38
2023-02-24T17:31:33.175Z,57.55
2023-02-24T17:34:02.867Z,60.72
2023-02-24T17:36:33.494Z,58.88
2023-02-24T17:39:02.138Z,54.47
2023-02-24T17:41:30.833Z,59.25
2023-02-24T17:43:59.525Z,57.53
2023-02-24T17:46:39.637Z,54.50
2023-02-24T17:49:11.562Z,54.63
2023-02-24T17:51:45.499Z,61.75
2023-02-24T17:54:16.745Z,53.22
2023-02-24T17:56:50.638Z,51.88
2023-02-24T17:59:19.286Z,67.38
2023-02-24T18:01:49.342Z,62.75
2023-02-24T18:04:18.104Z,57.88
2023-02-24T18:06:47.201Z,55.40
2023-02-24T18:09:15.849Z,63.63
2023-02-24T18:11:45.964Z,63.60
2023-02-24T18:14:15.807Z,52.20
2023-02-24T18:16:44.678Z,53.53
2023-02-24T18:19:15.909Z,52.00
2023-02-24T18:21:47.548Z,51.28
2023-02-24T18:24:16.807Z,50.47
2023-02-24T18:26:48.523Z,51.55
2023-02-24T18:29:25.346Z,55.13
2023-02-24T18:31:54.176Z,50.40
2023-02-24T18:34:24.442Z,49.72
2023-02-24T18:36:57.497Z,56.22
2023-02-24T18:39:30.000Z,53.63
2023-02-24T18:42:02.154Z,53.65
2023-02-24T18:44:31.653Z,50.55
2023-02-24T18:47:01.669Z,42.47
2023-02-24T18:49:34.427Z,38.15
2023-02-24T18:52:08.981Z,39.75
2023-02-24T18:54:40.269Z,32.95
2023-02-24T18:57:15.889Z,39.28
2023-02-24T18:59:46.966Z,39.20
2023-02-24T19:02:15.679Z,34.53
2023-02-24T19:04:48.990Z,35.90
2023-02-24T19:07:17.700Z,34.42
2023-02-24T19:09:49.466Z,33.92
2023-02-24T19:12:19.379Z,32.10
2023-02-24T19:14:54.552Z,33.65
2023-02-24T19:17:23.188Z,34.95
2023-02-24T19:19:54.240Z,32.53
2023-02-24T19:22:23.056Z,34.70
2023-02-24T19:24:51.782Z,34.85
2023-02-24T19:27:20.432Z,34.05
2023-02-24T19:29:49.098Z,33.72
2023-02-24T19:32:17.973Z,33.20
2023-02-24T19:34:52.199Z,31.90
2023-02-24T19:37:23.248Z,35.55
2023-02-24T19:39:52.366Z,31.27
2023-02-24T19:42:21.262Z,32.20
2023-02-24T19:44:51.841Z,33.93
2023-02-24T19:47:20.863Z,35.15
2023-02-24T19:49:52.803Z,86.50
2023-02-24T19:52:32.669Z,44.92
2023-02-24T19:55:04.805Z,36.55
2023-02-24T19:57:33.937Z,34.53
2023-02-24T20:00:07.539Z,35.28
2023-02-24T20:02:41.014Z,37.70
2023-02-24T20:05:10.966Z,37.45
2023-02-24T20:07:44.461Z,39.20
2023-02-24T20:10:13.904Z,32.55
2023-02-24T20:12:46.227Z,35.13
2023-02-24T20:15:15.635Z,35.83
2023-02-24T20:17:44.498Z,42.22
2023-02-24T20:20:15.832Z,42.17
2023-02-24T20:22:45.998Z,39.87
2023-02-24T20:25:15.506Z,38.60
2023-02-24T20:27:44.339Z,35.35
2023-02-24T20:30:17.082Z,40.10
2023-02-24T20:32:47.074Z,35.83
2023-02-24T20:35:16.704Z,31.73
2023-02-24T20:37:51.571Z,35.65
2023-02-24T20:40:20.404Z,35.33
2023-02-24T20:42:51.004Z,39.33
2023-02-24T20:45:19.781Z,34.22
2023-02-24T20:47:50.832Z,36.67
2023-02-24T20:50:19.656Z,35.85
2023-02-24T20:52:49.898Z,43.00
2023-02-24T20:55:18.718Z,41.20
2023-02-24T20:57:47.291Z,37.40
2023-02-24T21:00:18.160Z,34.53
2023-02-24T21:02:46.883Z,39.20
2023-02-24T21:05:20.554Z,34.90
2023-02-24T21:07:51.858Z,30.27
2023-02-24T21:10:23.231Z,41.70
2023-02-24T21:12:52.710Z,49.50
2023-02-24T21:15:21.826Z,34.50
2023-02-24T21:17:50.584Z,42.75
2023-02-24T21:20:19.523Z,29.10
2023-02-24T21:22:48.102Z,29.67
2023-02-24T21:25:18.154Z,26.23
2023-02-24T21:27:48.505Z,29.30
2023-02-24T21:30:17.487Z,28.23
2023-02-24T21:32:46.133Z,28.42
2023-02-24T21:35:14.838Z,41.87
2023-02-24T21:37:43.407Z,31.17
2023-02-24T21:40:13.329Z,33.58
2023-02-24T21:42:44.622Z,27.83
2023-02-24T21:45:14.068Z,34.97
2023-02-24T21:47:42.763Z,30.63
2023-02-24T21:50:13.563Z,28.35
2023-02-24T21:52:42.076Z,28.42
2023-02-24T21:55:11.577Z,32.78
2023-02-24T21:57:44.871Z,26.17
2023-02-24T22:00:19.741Z,25.38
2023-02-24T22:02:49.911Z,34.65
2023-02-24T22:05:20.473Z,32.10
2023-02-24T22:07:50.060Z,25.33
2023-02-24T22:10:21.142Z,27.50
2023-02-24T22:12:52.046Z,24.80
2023-02-24T22:15:20.778Z,23.98
2023-02-24T22:17:49.313Z,24.70
2023-02-24T22:20:17.855Z,25.33
2023-02-24T22:22:46.380Z,25.65
2023-02-24T22:25:14.960Z,25.50
2023-02-24T22:27:43.489Z,26.77
2023-02-24T22:30:15.491Z,21.00
2023-02-24T22:32:44.264Z,24.27
2023-02-24T22:35:12.890Z,24.53
2023-02-24T22:37:41.483Z,26.10
2023-02-24T22:40:11.423Z,29.73
2023-02-24T22:42:40.792Z,27.05
2023-02-24T22:45:10.859Z,28.48
2023-02-24T22:47:40.879Z,29.65
2023-02-24T22:50:11.038Z,25.27
2023-02-24T22:52:39.966Z,29.77
2023-02-24T22:55:10.108Z,31.27
2023-02-24T22:57:38.749Z,28.83
2023-02-24T23:00:10.835Z,26.48
2023-02-24T23:02:43.750Z,28.45
2023-02-24T23:05:12.594Z,28.40
2023-02-24T23:07:41.145Z,30.23
2023-02-24T23:10:11.048Z,24.98
2023-02-24T23:12:39.666Z,25.77
2023-02-24T23:15:10.498Z,25.45
2023-02-24T23:17:39.121Z,22.08
2023-02-24T23:20:12.952Z,27.67
2023-02-24T23:22:43.186Z,31.40
2023-02-24T23:25:11.871Z,26.30
2023-02-24T23:27:40.776Z,24.88
2023-02-24T23:30:12.451Z,25.45
2023-02-24T23:32:43.918Z,24.42
2023-02-24T23:35:14.331Z,24.40
2023-02-24T23:37:43.278Z,25.25
2023-02-24T23:40:14.920Z,26.17
2023-02-24T23:42:44.106Z,26.95
2023-02-24T23:45:12.947Z,24.15
2023-02-24T23:47:41.484Z,23.77
2023-02-24T23:50:11.446Z,22.50
2023-02-24T23:52:41.490Z,29.33
2023-02-24T23:55:11.445Z,29.08
2023-02-24T23:57:40.856Z,25.35
